createdAt,value
2019-04-30T00:00:00.752Z,10.10
2019-04-30T00:02:48.891Z,10.10
2019-04-30T00:05:19.004Z,10.10
2019-04-30T00:07:50.801Z,10.00
2019-04-30T00:10:18.371Z,10.10
2019-04-30T00:12:47.203Z,10.20
2019-04-30T00:15:19.468Z,10.10
2019-04-30T00:17:52.677Z,10.10
2019-04-30T00:20:17.718Z,10.00
2019-04-30T00:22:50.216Z,10.10
2019-04-30T00:25:19.611Z,10.00
2019-04-30T00:27:48.169Z,10.00
2019-04-30T00:30:17.074Z,10.00
2019-04-30T00:32:47.211Z,10.00
2019-04-30T00:35:19.510Z,10.00
2019-04-30T00:37:51.742Z,10.00
2019-04-30T00:40:17.005Z,9.80
2019-04-30T00:42:45.849Z,9.90
2019-04-30T00:45:15.462Z,9.90
2019-04-30T00:47:47.782Z,10.00
2019-04-30T00:50:15.116Z,10.00
2019-04-30T00:52:45.680Z,9.90
2019-04-30T00:55:15.051Z,10.00
2019-04-30T00:57:47.453Z,9.90
2019-04-30T01:00:25.209Z,10.00
2019-04-30T01:02:49.225Z,10.00
2019-04-30T01:05:19.603Z,10.00
2019-04-30T01:07:51.712Z,10.00
2019-04-30T01:10:19.540Z,10.00
2019-04-30T01:12:50.274Z,9.90
2019-04-30T01:15:19.346Z,9.90
2019-04-30T01:17:51.074Z,9.90
2019-04-30T01:20:19.460Z,10.00
2019-04-30T01:22:48.682Z,10.00
2019-04-30T01:25:19.002Z,10.00
2019-04-30T01:27:50.876Z,10.00
2019-04-30T01:30:22.747Z,10.00
2019-04-30T01:32:56.414Z,10.00
2019-04-30T01:35:23.783Z,9.90
2019-04-30T01:37:51.162Z,9.90
2019-04-30T01:40:20.035Z,9.90
2019-04-30T01:42:51.608Z,9.90
2019-04-30T01:45:23.218Z,9.90
2019-04-30T01:47:49.854Z,9.80
2019-04-30T01:50:19.382Z,9.90
2019-04-30T01:52:54.496Z,9.90
2019-04-30T01:55:26.008Z,9.90
2019-04-30T01:57:59.194Z,9.90
2019-04-30T02:00:32.606Z,9.80
2019-04-30T02:03:01.389Z,9.80
2019-04-30T02:05:30.199Z,9.70
2019-04-30T02:07:59.046Z,9.70
2019-04-30T02:10:28.503Z,9.70
2019-04-30T02:12:59.090Z,9.70
2019-04-30T02:15:29.162Z,9.70
2019-04-30T02:17:58.695Z,9.80
2019-04-30T02:20:28.680Z,9.80
2019-04-30T02:22:58.626Z,9.80
2019-04-30T02:25:29.473Z,9.80
2019-04-30T02:27:59.277Z,9.90
2019-04-30T02:30:30.984Z,9.90
2019-04-30T02:33:00.624Z,9.80
2019-04-30T02:35:40.659Z,9.90
2019-04-30T02:38:14.027Z,9.80
2019-04-30T02:40:42.944Z,9.70
2019-04-30T02:43:12.566Z,9.70
2019-04-30T02:45:44.388Z,9.70
2019-04-30T02:48:14.404Z,9.80
2019-04-30T02:50:43.827Z,9.80
2019-04-30T02:53:50.947Z,9.80
2019-04-30T02:56:21.925Z,9.80
2019-04-30T02:58:50.936Z,9.80
2019-04-30T03:01:20.440Z,9.80
2019-04-30T03:03:50.142Z,9.60
2019-04-30T03:06:20.535Z,9.60
2019-04-30T03:08:51.049Z,9.70
2019-04-30T03:11:20.846Z,9.70
2019-04-30T03:13:49.896Z,9.60
2019-04-30T03:16:20.946Z,9.60
2019-04-30T03:18:54.514Z,9.60
2019-04-30T03:21:43.039Z,9.60
2019-04-30T03:24:11.869Z,9.50
2019-04-30T03:26:40.708Z,9.50
2019-04-30T03:29:11.357Z,9.50
2019-04-30T03:31:44.020Z,9.50
2019-04-30T03:34:17.126Z,9.60
2019-04-30T03:36:40.898Z,9.60
2019-04-30T03:39:10.961Z,9.60
2019-04-30T03:41:41.527Z,9.60
2019-04-30T03:44:20.815Z,9.60
2019-04-30T03:46:41.017Z,9.70
2019-04-30T03:49:10.631Z,9.70
2019-04-30T03:51:40.585Z,9.70
2019-04-30T03:54:10.374Z,9.70
2019-04-30T03:56:40.606Z,9.70
2019-04-30T03:59:10.528Z,9.70
2019-04-30T04:01:50.863Z,9.70
2019-04-30T04:04:21.243Z,9.60
2019-04-30T04:07:03.927Z,9.70
2019-04-30T04:09:45.932Z,9.80
2019-04-30T04:12:30.389Z,9.80
2019-04-30T04:15:03.235Z,9.80
2019-04-30T04:17:31.428Z,9.70
2019-04-30T04:19:59.758Z,9.80
2019-04-30T04:22:30.691Z,9.70
2019-04-30T04:25:00.013Z,9.70
2019-04-30T04:27:30.206Z,9.70
2019-04-30T04:30:01.158Z,9.70
2019-04-30T04:32:30.748Z,9.70
2019-04-30T04:35:00.416Z,9.70
2019-04-30T04:37:30.204Z,9.70
2019-04-30T04:39:59.787Z,9.60
2019-04-30T04:42:32.499Z,9.60
2019-04-30T04:44:59.638Z,9.60
2019-04-30T04:47:30.730Z,9.60
2019-04-30T04:50:00.678Z,9.50
2019-04-30T04:52:31.626Z,9.50
2019-04-30T04:55:00.532Z,9.70
2019-04-30T04:57:30.440Z,9.70
2019-04-30T05:00:06.579Z,9.70
2019-04-30T05:02:49.921Z,9.70
2019-04-30T05:05:19.427Z,9.70
2019-04-30T05:07:48.682Z,9.70
2019-04-30T05:10:19.229Z,9.80
2019-04-30T05:12:50.542Z,9.80
2019-04-30T05:15:19.465Z,9.80
2019-04-30T05:17:49.418Z,9.80
2019-04-30T05:20:19.513Z,9.80
2019-04-30T05:22:48.892Z,9.80
2019-04-30T05:25:18.692Z,9.80
2019-04-30T05:27:48.836Z,9.70
2019-04-30T05:30:19.784Z,9.70
2019-04-30T05:32:50.428Z,9.80
2019-04-30T05:35:18.802Z,9.80
2019-04-30T05:37:49.385Z,9.80
2019-04-30T05:40:18.830Z,9.90
2019-04-30T05:42:49.445Z,10.00
2019-04-30T05:45:19.254Z,10.00
2019-04-30T05:47:50.194Z,10.10
2019-04-30T05:50:19.948Z,10.10
2019-04-30T05:52:49.378Z,10.10
2019-04-30T05:55:19.854Z,10.10
2019-04-30T05:57:55.868Z,10.10
2019-04-30T06:00:19.815Z,10.20
2019-04-30T06:02:49.770Z,10.10
2019-04-30T06:05:19.770Z,10.10
2019-04-30T06:07:49.563Z,10.10
2019-04-30T06:10:23.953Z,10.10
2019-04-30T06:13:03.287Z,10.20
2019-04-30T06:15:34.004Z,10.10
2019-04-30T06:18:12.850Z,10.20
2019-04-30T06:20:34.399Z,10.20
2019-04-30T06:23:03.430Z,10.20
2019-04-30T06:25:45.843Z,10.30
2019-04-30T06:28:04.264Z,10.20
2019-04-30T06:30:33.508Z,10.30
2019-04-30T06:33:02.624Z,10.30
2019-04-30T06:35:31.525Z,10.40
2019-04-30T06:38:00.353Z,10.40
2019-04-30T06:40:29.511Z,10.40
2019-04-30T06:43:00.647Z,10.30
2019-04-30T06:45:30.074Z,10.20
2019-04-30T06:48:00.581Z,10.30
2019-04-30T06:50:29.420Z,10.50
2019-04-30T06:53:01.038Z,10.40
2019-04-30T06:55:30.726Z,10.50
2019-04-30T06:58:11.429Z,10.50
2019-04-30T07:00:40.401Z,10.60
2019-04-30T07:03:09.867Z,10.70
2019-04-30T07:05:39.228Z,10.60
2019-04-30T07:08:37.313Z,10.60
2019-04-30T07:11:16.364Z,10.70
2019-04-30T07:13:46.787Z,10.80
2019-04-30T07:16:15.585Z,10.90
2019-04-30T07:18:45.298Z,10.90
2019-04-30T07:21:14.148Z,10.90
2019-04-30T07:23:42.946Z,10.90
2019-04-30T07:26:13.760Z,10.90
2019-04-30T07:28:47.876Z,11.00
2019-04-30T07:31:14.570Z,11.00
2019-04-30T07:33:43.247Z,11.10
2019-04-30T07:36:12.087Z,11.20
2019-04-30T07:38:51.878Z,11.20
2019-04-30T07:41:11.362Z,11.30
2019-04-30T07:43:40.199Z,11.30
2019-04-30T07:46:09.595Z,11.30
2019-04-30T07:48:40.250Z,11.30
2019-04-30T07:51:10.509Z,11.40
2019-04-30T07:53:40.561Z,11.50
2019-04-30T07:56:24.267Z,11.60
2019-04-30T07:59:00.746Z,11.80
2019-04-30T08:02:03.291Z,11.90
2019-04-30T08:04:29.099Z,12.00
2019-04-30T08:07:11.825Z,12.00
2019-04-30T08:09:59.003Z,12.00
2019-04-30T08:12:42.222Z,11.80
2019-04-30T08:15:23.061Z,11.80
2019-04-30T08:18:08.681Z,12.00
2019-04-30T08:20:35.161Z,12.20
2019-04-30T08:23:15.606Z,12.40
2019-04-30T08:25:34.450Z,12.40
2019-04-30T08:28:03.306Z,12.50
2019-04-30T08:30:32.108Z,12.60
2019-04-30T08:33:01.389Z,12.50
2019-04-30T08:35:30.261Z,12.40
2019-04-30T08:37:59.133Z,12.40
2019-04-30T08:40:29.736Z,12.40
2019-04-30T08:42:59.516Z,12.30
2019-04-30T08:45:31.436Z,12.20
2019-04-30T08:47:59.110Z,12.20
2019-04-30T08:50:29.881Z,12.10
2019-04-30T08:52:59.731Z,12.10
2019-04-30T08:55:30.472Z,11.90
2019-04-30T08:58:09.345Z,11.90
2019-04-30T09:00:30.317Z,11.90
2019-04-30T09:02:59.436Z,11.90
2019-04-30T09:05:30.614Z,11.80
2019-04-30T09:07:59.896Z,11.70
2019-04-30T09:10:29.416Z,11.70
2019-04-30T09:12:59.733Z,11.70
2019-04-30T09:15:29.118Z,11.70
2019-04-30T09:18:05.814Z,11.80
2019-04-30T09:20:29.491Z,11.80
2019-04-30T09:22:59.569Z,11.90
2019-04-30T09:25:28.810Z,11.90
2019-04-30T09:27:58.821Z,12.10
2019-04-30T09:30:29.810Z,12.10
2019-04-30T09:32:59.521Z,12.10
2019-04-30T09:35:31.819Z,12.20
2019-04-30T09:38:01.879Z,12.20
2019-04-30T09:40:32.302Z,12.20
2019-04-30T09:43:00.423Z,12.20
2019-04-30T09:45:29.513Z,12.30
2019-04-30T09:47:59.238Z,12.30
2019-04-30T09:50:29.230Z,12.30
2019-04-30T09:53:00.333Z,12.30
2019-04-30T09:55:29.163Z,12.40
2019-04-30T09:57:58.881Z,12.40
2019-04-30T10:00:29.465Z,12.40
2019-04-30T10:02:59.767Z,12.40
2019-04-30T10:05:29.335Z,12.40
2019-04-30T10:07:59.415Z,12.30
2019-04-30T10:10:30.034Z,12.30
2019-04-30T10:12:59.367Z,12.20
2019-04-30T10:15:38.908Z,12.10
2019-04-30T10:18:08.549Z,12.10
2019-04-30T10:20:42.792Z,12.10
2019-04-30T10:23:11.608Z,12.10
2019-04-30T10:25:40.461Z,12.10
2019-04-30T10:28:09.978Z,12.10
2019-04-30T10:30:39.363Z,12.10
2019-04-30T10:33:10.024Z,12.10
2019-04-30T10:35:38.967Z,12.10
2019-04-30T10:38:09.683Z,12.20
2019-04-30T10:40:38.943Z,12.20
2019-04-30T10:43:09.177Z,12.20
2019-04-30T10:45:39.087Z,12.30
2019-04-30T10:48:08.075Z,12.30
2019-04-30T10:50:36.871Z,12.30
2019-04-30T10:53:05.696Z,12.40
2019-04-30T10:55:34.537Z,12.50
2019-04-30T10:58:03.596Z,12.60
2019-04-30T11:00:40.586Z,12.60
2019-04-30T11:03:19.294Z,12.80
2019-04-30T11:05:41.350Z,12.80
2019-04-30T11:08:10.364Z,12.80
2019-04-30T11:10:39.952Z,12.80
2019-04-30T11:13:08.913Z,12.80
2019-04-30T11:15:39.456Z,12.80
2019-04-30T11:18:08.629Z,12.80
2019-04-30T11:20:39.462Z,12.90
2019-04-30T11:23:14.146Z,12.90
2019-04-30T11:25:40.744Z,13.00
2019-04-30T11:28:09.509Z,13.00
2019-04-30T11:30:39.516Z,13.00
2019-04-30T11:33:08.851Z,13.00
2019-04-30T11:35:39.478Z,12.70
2019-04-30T11:38:08.466Z,12.70
2019-04-30T11:40:39.837Z,12.70
2019-04-30T11:43:07.798Z,12.70
2019-04-30T11:45:54.615Z,12.80
2019-04-30T11:48:23.602Z,12.90
2019-04-30T11:50:52.511Z,12.90
2019-04-30T11:53:27.237Z,13.00
2019-04-30T11:55:51.826Z,13.10
2019-04-30T11:58:21.714Z,12.90
2019-04-30T12:00:51.025Z,13.00
2019-04-30T12:03:19.831Z,13.10
2019-04-30T12:05:49.225Z,13.30
2019-04-30T12:08:19.704Z,13.30
2019-04-30T12:10:50.081Z,13.30
2019-04-30T12:13:31.994Z,13.40
2019-04-30T12:16:01.116Z,13.50
2019-04-30T12:18:29.933Z,13.50
2019-04-30T12:20:58.782Z,13.60
2019-04-30T12:23:27.604Z,13.70
2019-04-30T12:25:56.493Z,13.80
2019-04-30T12:28:27.350Z,13.90
2019-04-30T12:30:55.795Z,14.10
2019-04-30T12:33:24.607Z,14.10
2019-04-30T12:35:53.447Z,14.20
2019-04-30T12:38:22.260Z,14.20
2019-04-30T12:40:51.066Z,14.30
2019-04-30T12:43:19.897Z,14.30
2019-04-30T12:46:01.909Z,14.30
2019-04-30T12:48:20.751Z,14.30
2019-04-30T12:50:51.169Z,14.30
2019-04-30T12:53:24.292Z,14.30
2019-04-30T12:56:03.712Z,14.30
2019-04-30T12:58:32.524Z,14.40
2019-04-30T13:01:01.339Z,14.40
2019-04-30T13:03:30.827Z,14.40
2019-04-30T13:06:01.147Z,14.40
2019-04-30T13:08:30.687Z,14.40
2019-04-30T13:11:00.297Z,14.50
2019-04-30T13:13:31.920Z,14.60
2019-04-30T13:16:00.010Z,14.60
2019-04-30T13:18:29.585Z,14.70
2019-04-30T13:20:58.943Z,14.70
2019-04-30T13:23:29.697Z,14.80
2019-04-30T13:25:58.512Z,14.90
2019-04-30T13:28:33.447Z,15.00
2019-04-30T13:31:02.283Z,15.10
2019-04-30T13:33:45.457Z,15.10
2019-04-30T13:36:14.640Z,15.20
2019-04-30T13:38:49.494Z,15.10
2019-04-30T13:41:33.465Z,15.10
2019-04-30T13:44:03.003Z,15.10
2019-04-30T13:46:31.909Z,15.20
2019-04-30T13:49:01.156Z,15.30
2019-04-30T13:51:29.962Z,15.30
2019-04-30T13:53:58.779Z,15.30
2019-04-30T13:56:28.683Z,15.40
2019-04-30T13:58:57.730Z,15.30
2019-04-30T14:01:26.535Z,15.30
2019-04-30T14:03:58.909Z,15.40
2019-04-30T14:06:34.774Z,15.40
2019-04-30T14:09:16.673Z,15.40
2019-04-30T14:11:45.490Z,15.40
2019-04-30T14:14:14.390Z,15.50
2019-04-30T14:16:43.942Z,15.40
2019-04-30T14:19:12.855Z,15.40
2019-04-30T14:21:42.492Z,15.30
2019-04-30T14:24:11.319Z,15.40
2019-04-30T14:26:40.125Z,15.30
2019-04-30T14:29:08.951Z,15.30
2019-04-30T14:31:38.808Z,15.40
2019-04-30T14:34:07.822Z,15.40
2019-04-30T14:36:36.680Z,15.50
2019-04-30T14:39:14.501Z,15.70
2019-04-30T14:41:40.657Z,15.80
2019-04-30T14:44:20.980Z,15.80
2019-04-30T14:47:11.654Z,15.90
2019-04-30T14:50:01.648Z,15.90
2019-04-30T14:52:25.822Z,15.90
2019-04-30T14:55:08.888Z,15.90
2019-04-30T14:57:42.266Z,15.90
2019-04-30T15:00:25.157Z,15.80
2019-04-30T15:03:12.040Z,15.70
2019-04-30T15:05:48.339Z,15.60
2019-04-30T15:08:11.350Z,15.50
2019-04-30T15:10:40.175Z,15.60
2019-04-30T15:13:09.738Z,15.60
2019-04-30T15:15:39.170Z,15.80
2019-04-30T15:18:09.197Z,15.80
2019-04-30T15:20:39.830Z,16.00
2019-04-30T15:23:21.803Z,16.00
2019-04-30T15:25:49.994Z,16.10
2019-04-30T15:28:18.799Z,16.10
2019-04-30T15:30:48.802Z,16.20
2019-04-30T15:33:25.408Z,16.40
2019-04-30T15:35:54.226Z,16.40
2019-04-30T15:38:24.620Z,16.40
2019-04-30T15:40:53.463Z,16.40
2019-04-30T15:43:22.268Z,16.40
2019-04-30T15:45:51.093Z,16.40
2019-04-30T15:48:19.914Z,16.40
2019-04-30T15:50:49.273Z,16.40
2019-04-30T15:53:19.349Z,16.40
2019-04-30T15:55:48.283Z,16.20
2019-04-30T15:58:18.670Z,16.10
2019-04-30T16:00:49.260Z,16.00
2019-04-30T16:03:19.579Z,16.00
2019-04-30T16:05:50.045Z,15.90
2019-04-30T16:08:23.405Z,16.00
2019-04-30T16:11:02.327Z,16.10
2019-04-30T16:13:49.512Z,16.30
2019-04-30T16:16:39.355Z,16.50
2019-04-30T16:19:09.133Z,16.50
2019-04-30T16:21:38.168Z,16.70
2019-04-30T16:24:08.614Z,16.70
2019-04-30T16:26:48.619Z,16.60
2019-04-30T16:29:09.919Z,16.50
2019-04-30T16:31:39.188Z,16.50
2019-04-30T16:34:08.459Z,16.50
2019-04-30T16:36:38.949Z,16.50
2019-04-30T16:39:09.586Z,16.30
2019-04-30T16:41:40.569Z,16.10
2019-04-30T16:44:09.262Z,16.00
2019-04-30T16:46:39.483Z,15.80
2019-04-30T16:49:10.180Z,15.70
2019-04-30T16:51:38.925Z,15.50
2019-04-30T16:54:08.652Z,15.50
2019-04-30T16:56:38.681Z,15.50
2019-04-30T16:59:09.388Z,15.40
2019-04-30T17:01:38.234Z,15.30
2019-04-30T17:04:23.661Z,15.20
2019-04-30T17:07:06.281Z,15.10
2019-04-30T17:09:50.852Z,15.10
2019-04-30T17:12:23.550Z,15.20
2019-04-30T17:15:10.485Z,15.20
2019-04-30T17:17:40.217Z,15.20
2019-04-30T17:20:09.224Z,15.30
2019-04-30T17:22:39.457Z,15.30
2019-04-30T17:25:09.029Z,15.40
2019-04-30T17:27:39.254Z,15.50
2019-04-30T17:30:11.081Z,15.60
2019-04-30T17:32:40.040Z,15.60
2019-04-30T17:35:09.252Z,15.70
2019-04-30T17:37:38.086Z,15.80
2019-04-30T17:40:09.270Z,15.80
2019-04-30T17:42:38.004Z,15.90
2019-04-30T17:45:09.456Z,16.00
2019-04-30T17:47:38.434Z,16.20
2019-04-30T17:50:09.112Z,16.30
2019-04-30T17:52:38.005Z,16.40
2019-04-30T17:55:09.615Z,16.50
2019-04-30T17:57:40.320Z,16.50
2019-04-30T18:00:18.947Z,16.50
2019-04-30T18:02:42.519Z,16.40
2019-04-30T18:05:11.627Z,16.30
2019-04-30T18:07:40.640Z,16.30
2019-04-30T18:10:12.274Z,16.20
2019-04-30T18:12:41.093Z,16.20
2019-04-30T18:15:14.404Z,16.20
2019-04-30T18:17:44.848Z,16.10
2019-04-30T18:20:29.218Z,16.10
2019-04-30T18:22:59.815Z,16.00
2019-04-30T18:25:31.119Z,15.90
2019-04-30T18:28:01.497Z,15.80
2019-04-30T18:30:31.926Z,15.70
2019-04-30T18:33:00.739Z,15.60
2019-04-30T18:35:29.556Z,15.60
2019-04-30T18:37:58.664Z,15.50
2019-04-30T18:40:29.485Z,15.50
2019-04-30T18:42:59.378Z,15.50
2019-04-30T18:45:28.852Z,15.40
2019-04-30T18:47:59.496Z,15.40
2019-04-30T18:50:28.423Z,15.30
2019-04-30T18:52:58.862Z,15.30
2019-04-30T18:55:27.613Z,15.20
2019-04-30T18:57:59.169Z,15.20
2019-04-30T19:00:29.406Z,15.10
2019-04-30T19:02:58.694Z,15.10
2019-04-30T19:05:29.425Z,15.00
2019-04-30T19:08:06.529Z,15.00
2019-04-30T19:10:54.938Z,15.00
2019-04-30T19:13:29.878Z,14.90
2019-04-30T19:16:22.993Z,14.90
2019-04-30T19:19:05.623Z,14.90
2019-04-30T19:21:34.938Z,14.90
2019-04-30T19:24:03.740Z,14.80
2019-04-30T19:26:32.690Z,14.80
2019-04-30T19:29:01.496Z,14.80
2019-04-30T19:31:30.558Z,14.70
2019-04-30T19:33:59.436Z,14.70
2019-04-30T19:36:37.303Z,14.70
2019-04-30T19:39:00.189Z,14.60
2019-04-30T19:41:29.011Z,14.60
2019-04-30T19:43:57.827Z,14.60
2019-04-30T19:46:26.617Z,14.50
2019-04-30T19:48:55.461Z,14.50
2019-04-30T19:51:24.263Z,14.50
2019-04-30T19:53:54.130Z,14.50
2019-04-30T19:56:22.904Z,14.50
2019-04-30T19:59:01.461Z,14.50
2019-04-30T20:01:22.192Z,14.50
2019-04-30T20:03:51.048Z,14.50
2019-04-30T20:06:20.234Z,14.50
2019-04-30T20:08:49.037Z,14.50
2019-04-30T20:11:17.907Z,14.50
2019-04-30T20:13:48.753Z,14.50
2019-04-30T20:16:17.143Z,14.50
2019-04-30T20:18:45.974Z,14.50
2019-04-30T20:21:25.217Z,14.50
2019-04-30T20:23:46.803Z,14.40
2019-04-30T20:26:15.658Z,14.40
2019-04-30T20:28:44.482Z,14.40
2019-04-30T20:31:13.285Z,14.40
2019-04-30T20:33:42.143Z,14.30
2019-04-30T20:36:10.961Z,14.30
2019-04-30T20:38:41.348Z,14.10
2019-04-30T20:41:11.924Z,14.00
2019-04-30T20:43:40.939Z,13.70
2019-04-30T20:46:09.754Z,13.60
2019-04-30T20:48:39.321Z,13.50
2019-04-30T20:51:09.538Z,13.40
2019-04-30T20:53:39.107Z,13.10
2019-04-30T20:56:09.287Z,13.00
2019-04-30T20:58:40.466Z,12.70
2019-04-30T21:01:09.560Z,12.60
2019-04-30T21:03:39.566Z,12.50
2019-04-30T21:06:08.941Z,12.30
2019-04-30T21:08:38.146Z,12.40
2019-04-30T21:11:07.024Z,12.30
2019-04-30T21:13:41.514Z,12.30
2019-04-30T21:16:10.385Z,12.20
2019-04-30T21:18:45.079Z,12.30
2019-04-30T21:21:13.924Z,12.30
2019-04-30T21:23:42.746Z,12.30
2019-04-30T21:26:11.589Z,12.20
2019-04-30T21:28:40.403Z,12.10
2019-04-30T21:31:28.319Z,12.00
2019-04-30T21:34:01.799Z,12.00
2019-04-30T21:36:30.706Z,12.00
2019-04-30T21:38:59.544Z,12.00
2019-04-30T21:41:29.686Z,12.00
2019-04-30T21:43:58.689Z,12.00
2019-04-30T21:46:29.357Z,12.00
2019-04-30T21:48:59.556Z,12.10
2019-04-30T21:51:28.365Z,12.20
2019-04-30T21:53:57.258Z,12.20
2019-04-30T21:56:26.154Z,12.20
2019-04-30T21:58:55.013Z,12.20
2019-04-30T22:01:24.979Z,12.30
2019-04-30T22:03:53.877Z,12.30
2019-04-30T22:06:22.714Z,12.20
2019-04-30T22:08:51.706Z,12.10
2019-04-30T22:11:20.479Z,12.00
2019-04-30T22:13:49.620Z,12.00
2019-04-30T22:16:20.290Z,12.10
2019-04-30T22:18:49.116Z,12.10
2019-04-30T22:21:18.025Z,12.20
2019-04-30T22:23:48.362Z,12.20
2019-04-30T22:26:17.280Z,12.10
2019-04-30T22:28:46.162Z,12.10
2019-04-30T22:31:15.177Z,12.10
2019-04-30T22:33:43.997Z,12.20
2019-04-30T22:36:23.717Z,12.10
2019-04-30T22:38:54.108Z,12.20
2019-04-30T22:41:29.470Z,12.20
2019-04-30T22:43:57.965Z,12.20
2019-04-30T22:46:26.782Z,12.20
2019-04-30T22:48:55.703Z,12.20
2019-04-30T22:51:24.619Z,12.20
2019-04-30T22:53:53.474Z,12.20
2019-04-30T22:56:22.283Z,12.20
2019-04-30T22:58:51.116Z,12.20
2019-04-30T23:01:21.504Z,12.20
2019-04-30T23:03:51.887Z,12.20
2019-04-30T23:06:20.783Z,12.20
2019-04-30T23:08:49.545Z,12.20
2019-04-30T23:11:18.358Z,12.20
2019-04-30T23:13:47.206Z,12.20
2019-04-30T23:16:16.142Z,12.20
2019-04-30T23:18:44.977Z,12.20
2019-04-30T23:21:13.816Z,12.20
2019-04-30T23:23:42.626Z,12.20
2019-04-30T23:26:11.543Z,12.20
2019-04-30T23:28:40.759Z,12.30
2019-04-30T23:31:09.550Z,12.30
2019-04-30T23:33:38.426Z,12.30
2019-04-30T23:36:07.270Z,12.30
2019-04-30T23:38:36.116Z,12.40
2019-04-30T23:41:04.929Z,12.40
2019-04-30T23:43:33.763Z,12.40
2019-04-30T23:46:02.578Z,12.50
2019-04-30T23:48:31.403Z,12.50
2019-04-30T23:51:00.253Z,12.50
2019-04-30T23:53:29.058Z,12.50
2019-04-30T23:55:57.865Z,12.50
2019-04-30T23:58:26.702Z,12.50
